sensor_id;sensor_type;location;lat;lon;timestamp;pressure;altitude;pressure_sealevel;temperature;humidity
54144;BME280;40050;47.324;18.792;2023-03-22T00:00:02;1003.13;;;9.44;57.44
54144;BME280;40050;47.324;18.792;2023-03-22T00:02:04;1003.14;;;9.40;57.41
54144;BME280;40050;47.324;18.792;2023-03-22T00:04:05;1003.18;;;9.40;57.39
54144;BME280;40050;47.324;18.792;2023-03-22T00:06:06;1003.17;;;9.41;57.27
54144;BME280;40050;47.324;18.792;2023-03-22T00:08:07;1003.15;;;9.41;57.23
54144;BME280;40050;47.324;18.792;2023-03-22T00:10:08;1003.16;;;9.42;57.36
54144;BME280;40050;47.324;18.792;2023-03-22T00:12:09;1003.14;;;9.42;57.35
54144;BME280;40050;47.324;18.792;2023-03-22T00:14:10;1003.12;;;9.42;57.16
54144;BME280;40050;47.324;18.792;2023-03-22T00:16:14;1003.13;;;9.41;57.19
54144;BME280;40050;47.324;18.792;2023-03-22T00:18:15;1003.15;;;9.40;57.26
54144;BME280;40050;47.324;18.792;2023-03-22T00:20:16;1003.01;;;9.35;57.53
54144;BME280;40050;47.324;18.792;2023-03-22T00:22:17;1003.04;;;9.41;57.35
54144;BME280;40050;47.324;18.792;2023-03-22T00:24:18;1003.02;;;9.39;57.22
54144;BME280;40050;47.324;18.792;2023-03-22T00:26:19;1002.99;;;9.38;57.08
54144;BME280;40050;47.324;18.792;2023-03-22T00:28:20;1002.96;;;9.35;56.84
54144;BME280;40050;47.324;18.792;2023-03-22T00:30:21;1003.02;;;9.34;56.80
54144;BME280;40050;47.324;18.792;2023-03-22T00:32:22;1003.07;;;9.32;56.80
54144;BME280;40050;47.324;18.792;2023-03-22T00:34:23;1003.03;;;9.28;56.80
54144;BME280;40050;47.324;18.792;2023-03-22T00:36:24;1002.67;;;9.28;56.88
54144;BME280;40050;47.324;18.792;2023-03-22T00:38:25;1003.05;;;9.29;56.91
54144;BME280;40050;47.324;18.792;2023-03-22T00:40:26;1003.07;;;9.27;56.61
54144;BME280;40050;47.324;18.792;2023-03-22T00:42:27;1003.03;;;9.25;56.37
54144;BME280;40050;47.324;18.792;2023-03-22T00:44:28;1002.99;;;9.23;56.45
54144;BME280;40050;47.324;18.792;2023-03-22T00:46:29;1003.01;;;9.19;56.72
54144;BME280;40050;47.324;18.792;2023-03-22T00:48:30;1002.98;;;9.16;56.66
54144;BME280;40050;47.324;18.792;2023-03-22T00:50:31;1003.01;;;9.13;56.80
54144;BME280;40050;47.324;18.792;2023-03-22T00:52:32;1003.04;;;9.11;56.75
54144;BME280;40050;47.324;18.792;2023-03-22T00:54:33;1003.06;;;9.09;56.76
54144;BME280;40050;47.324;18.792;2023-03-22T00:56:34;1003.01;;;9.04;56.60
54144;BME280;40050;47.324;18.792;2023-03-22T00:58:35;1003.00;;;9.00;56.43
54144;BME280;40050;47.324;18.792;2023-03-22T01:00:35;1003.01;;;8.94;56.35
54144;BME280;40050;47.324;18.792;2023-03-22T01:02:36;1003.04;;;8.92;56.36
54144;BME280;40050;47.324;18.792;2023-03-22T01:04:38;1002.83;;;8.77;56.40
54144;BME280;40050;47.324;18.792;2023-03-22T01:06:39;1002.96;;;8.83;56.39
54144;BME280;40050;47.324;18.792;2023-03-22T01:08:40;1002.94;;;8.81;56.46
54144;BME280;40050;47.324;18.792;2023-03-22T01:10:41;1002.91;;;8.82;56.46
54144;BME280;40050;47.324;18.792;2023-03-22T01:12:42;1002.91;;;8.84;56.38
54144;BME280;40050;47.324;18.792;2023-03-22T01:14:43;1002.89;;;8.82;56.48
54144;BME280;40050;47.324;18.792;2023-03-22T01:16:44;1002.90;;;8.78;55.15
54144;BME280;40050;47.324;18.792;2023-03-22T01:18:45;1002.89;;;8.72;54.22
54144;BME280;40050;47.324;18.792;2023-03-22T01:20:46;1002.89;;;8.65;53.53
54144;BME280;40050;47.324;18.792;2023-03-22T01:22:47;1002.78;;;8.55;53.82
54144;BME280;40050;47.324;18.792;2023-03-22T01:24:48;1002.83;;;8.51;54.38
54144;BME280;40050;47.324;18.792;2023-03-22T01:26:49;1002.86;;;8.45;54.77
54144;BME280;40050;47.324;18.792;2023-03-22T01:28:50;1002.87;;;8.38;54.87
54144;BME280;40050;47.324;18.792;2023-03-22T01:30:51;1002.84;;;8.31;54.89
54144;BME280;40050;47.324;18.792;2023-03-22T01:32:52;1002.85;;;8.21;54.75
54144;BME280;40050;47.324;18.792;2023-03-22T01:34:53;1002.87;;;8.14;54.74
54144;BME280;40050;47.324;18.792;2023-03-22T01:36:54;1002.87;;;8.07;54.95
54144;BME280;40050;47.324;18.792;2023-03-22T01:38:55;1002.86;;;8.00;55.30
54144;BME280;40050;47.324;18.792;2023-03-22T01:40:56;1002.89;;;7.95;55.61
54144;BME280;40050;47.324;18.792;2023-03-22T01:42:57;1002.86;;;7.88;55.90
54144;BME280;40050;47.324;18.792;2023-03-22T01:47:14;1002.88;;;7.75;56.41
54144;BME280;40050;47.324;18.792;2023-03-22T01:49:25;1002.89;;;7.72;56.88
54144;BME280;40050;47.324;18.792;2023-03-22T01:51:27;1002.87;;;7.69;57.06
54144;BME280;40050;47.324;18.792;2023-03-22T01:53:29;1002.88;;;7.67;57.23
54144;BME280;40050;47.324;18.792;2023-03-22T01:55:32;1002.92;;;7.65;57.57
54144;BME280;40050;47.324;18.792;2023-03-22T01:57:33;1002.86;;;7.59;57.74
54144;BME280;40050;47.324;18.792;2023-03-22T01:59:35;1002.90;;;7.61;57.81
54144;BME280;40050;47.324;18.792;2023-03-22T02:01:36;1002.89;;;7.59;57.66
54144;BME280;40050;47.324;18.792;2023-03-22T02:05:50;1002.90;;;7.56;57.34
54144;BME280;40050;47.324;18.792;2023-03-22T02:07:52;1002.89;;;7.47;57.14
54144;BME280;40050;47.324;18.792;2023-03-22T02:09:53;1002.92;;;7.42;57.02
54144;BME280;40050;47.324;18.792;2023-03-22T02:12:01;1002.94;;;7.39;57.22
54144;BME280;40050;47.324;18.792;2023-03-22T02:14:19;1002.95;;;7.35;57.46
54144;BME280;40050;47.324;18.792;2023-03-22T02:16:39;1002.98;;;7.33;57.94
54144;BME280;40050;47.324;18.792;2023-03-22T02:33:04;1003.06;;;7.14;59.49
54144;BME280;40050;47.324;18.792;2023-03-22T02:42:20;1003.12;;;7.13;59.69
54144;BME280;40050;47.324;18.792;2023-03-22T02:44:29;1003.10;;;7.11;59.38
54144;BME280;40050;47.324;18.792;2023-03-22T02:46:43;1003.06;;;7.08;59.34
54144;BME280;40050;47.324;18.792;2023-03-22T02:53:30;1003.08;;;7.12;59.31
54144;BME280;40050;47.324;18.792;2023-03-22T02:55:47;1003.08;;;7.07;59.22
54144;BME280;40050;47.324;18.792;2023-03-22T02:57:52;1003.06;;;7.04;59.72
54144;BME280;40050;47.324;18.792;2023-03-22T02:59:55;1002.99;;;7.01;59.55
54144;BME280;40050;47.324;18.792;2023-03-22T03:01:59;1002.97;;;6.99;60.02
54144;BME280;40050;47.324;18.792;2023-03-22T03:04:03;1002.96;;;6.97;60.22
54144;BME280;40050;47.324;18.792;2023-03-22T03:06:10;1003.02;;;6.99;60.24
54144;BME280;40050;47.324;18.792;2023-03-22T03:08:13;1003.05;;;6.94;58.23
54144;BME280;40050;47.324;18.792;2023-03-22T03:10:16;1003.09;;;6.80;57.38
54144;BME280;40050;47.324;18.792;2023-03-22T03:12:22;1003.03;;;6.72;57.28
54144;BME280;40050;47.324;18.792;2023-03-22T03:14:24;1003.12;;;6.72;58.26
54144;BME280;40050;47.324;18.792;2023-03-22T03:16:26;1003.18;;;6.68;58.82
54144;BME280;40050;47.324;18.792;2023-03-22T03:18:32;1003.30;;;6.64;59.67
54144;BME280;40050;47.324;18.792;2023-03-22T03:21:03;1003.29;;;6.61;59.92
54144;BME280;40050;47.324;18.792;2023-03-22T03:23:21;1003.25;;;6.57;60.19
54144;BME280;40050;47.324;18.792;2023-03-22T03:25:33;1003.23;;;6.60;60.83
54144;BME280;40050;47.324;18.792;2023-03-22T03:27:39;1003.24;;;6.59;60.74
54144;BME280;40050;47.324;18.792;2023-03-22T03:29:50;1003.23;;;6.59;60.64
54144;BME280;40050;47.324;18.792;2023-03-22T03:32:36;1003.37;;;6.58;61.12
54144;BME280;40050;47.324;18.792;2023-03-22T03:34:23;1003.43;;;6.59;61.59
54144;BME280;40050;47.324;18.792;2023-03-22T03:36:25;1003.47;;;6.61;61.63
54144;BME280;40050;47.324;18.792;2023-03-22T03:38:28;1003.56;;;6.64;61.35
54144;BME280;40050;47.324;18.792;2023-03-22T03:40:31;1003.62;;;6.62;61.59
54144;BME280;40050;47.324;18.792;2023-03-22T03:42:32;1003.63;;;6.60;62.23
54144;BME280;40050;47.324;18.792;2023-03-22T03:44:34;1003.63;;;6.68;62.77
54144;BME280;40050;47.324;18.792;2023-03-22T03:46:35;1003.56;;;6.62;63.38
54144;BME280;40050;47.324;18.792;2023-03-22T03:48:37;1003.48;;;6.62;63.94
54144;BME280;40050;47.324;18.792;2023-03-22T03:50:40;1003.41;;;6.64;63.96
54144;BME280;40050;47.324;18.792;2023-03-22T03:52:41;1003.44;;;6.68;64.13
54144;BME280;40050;47.324;18.792;2023-03-22T03:54:42;1003.49;;;6.76;64.47
54144;BME280;40050;47.324;18.792;2023-03-22T03:56:43;1003.55;;;6.82;64.34
54144;BME280;40050;47.324;18.792;2023-03-22T03:58:44;1003.51;;;6.82;64.28
54144;BME280;40050;47.324;18.792;2023-03-22T04:00:45;1003.53;;;6.84;64.26
54144;BME280;40050;47.324;18.792;2023-03-22T04:02:46;1003.57;;;6.91;64.48
54144;BME280;40050;47.324;18.792;2023-03-22T04:04:47;1003.57;;;6.94;64.47
54144;BME280;40050;47.324;18.792;2023-03-22T04:06:48;1003.53;;;6.98;64.70
54144;BME280;40050;47.324;18.792;2023-03-22T04:08:49;1003.45;;;6.98;64.51
54144;BME280;40050;47.324;18.792;2023-03-22T04:10:50;1003.52;;;7.11;64.92
54144;BME280;40050;47.324;18.792;2023-03-22T04:12:51;1003.51;;;7.17;65.26
54144;BME280;40050;47.324;18.792;2023-03-22T04:14:52;1003.53;;;7.23;65.46
54144;BME280;40050;47.324;18.792;2023-03-22T04:16:53;1003.56;;;7.28;65.56
54144;BME280;40050;47.324;18.792;2023-03-22T04:18:54;1003.64;;;7.30;65.61
54144;BME280;40050;47.324;18.792;2023-03-22T04:20:55;1003.58;;;7.34;65.75
54144;BME280;40050;47.324;18.792;2023-03-22T04:22:56;1003.55;;;7.41;66.14
54144;BME280;40050;47.324;18.792;2023-03-22T04:24:57;1003.53;;;7.46;66.29
54144;BME280;40050;47.324;18.792;2023-03-22T04:26:58;1003.47;;;7.48;66.23
54144;BME280;40050;47.324;18.792;2023-03-22T04:28:59;1003.49;;;7.52;66.69
54144;BME280;40050;47.324;18.792;2023-03-22T04:31:00;1003.45;;;7.57;66.92
54144;BME280;40050;47.324;18.792;2023-03-22T04:33:03;1003.46;;;7.59;66.86
54144;BME280;40050;47.324;18.792;2023-03-22T04:35:05;1003.44;;;7.63;66.88
54144;BME280;40050;47.324;18.792;2023-03-22T04:37:06;1003.44;;;7.66;66.83
54144;BME280;40050;47.324;18.792;2023-03-22T04:39:08;1003.48;;;7.70;66.59
54144;BME280;40050;47.324;18.792;2023-03-22T04:41:10;1003.54;;;7.74;66.41
54144;BME280;40050;47.324;18.792;2023-03-22T04:43:11;1003.58;;;7.77;66.20
54144;BME280;40050;47.324;18.792;2023-03-22T04:45:12;1003.59;;;7.82;66.17
54144;BME280;40050;47.324;18.792;2023-03-22T04:47:13;1003.57;;;7.84;65.91
54144;BME280;40050;47.324;18.792;2023-03-22T04:49:14;1003.53;;;7.87;65.65
54144;BME280;40050;47.324;18.792;2023-03-22T04:51:15;1003.51;;;7.88;65.62
54144;BME280;40050;47.324;18.792;2023-03-22T04:53:16;1003.50;;;7.90;65.74
54144;BME280;40050;47.324;18.792;2023-03-22T04:55:17;1003.46;;;7.88;65.65
54144;BME280;40050;47.324;18.792;2023-03-22T04:57:18;1003.53;;;7.93;65.76
54144;BME280;40050;47.324;18.792;2023-03-22T04:59:19;1003.48;;;7.95;65.95
54144;BME280;40050;47.324;18.792;2023-03-22T05:01:20;1003.52;;;8.00;65.95
54144;BME280;40050;47.324;18.792;2023-03-22T05:03:21;1003.51;;;8.01;65.83
54144;BME280;40050;47.324;18.792;2023-03-22T05:05:22;1003.21;;;7.86;65.95
54144;BME280;40050;47.324;18.792;2023-03-22T05:07:23;1003.55;;;8.11;65.62
54144;BME280;40050;47.324;18.792;2023-03-22T05:09:24;1003.62;;;8.11;64.91
54144;BME280;40050;47.324;18.792;2023-03-22T05:11:25;1003.61;;;8.09;64.79
54144;BME280;40050;47.324;18.792;2023-03-22T05:13:26;1003.56;;;8.02;65.01
54144;BME280;40050;47.324;18.792;2023-03-22T05:15:27;1003.57;;;8.00;65.09
54144;BME280;40050;47.324;18.792;2023-03-22T05:17:28;1003.57;;;8.01;65.41
54144;BME280;40050;47.324;18.792;2023-03-22T05:19:29;1003.58;;;8.03;65.71
54144;BME280;40050;47.324;18.792;2023-03-22T05:21:30;1003.55;;;8.05;65.88
54144;BME280;40050;47.324;18.792;2023-03-22T05:23:31;1003.58;;;8.08;66.11
54144;BME280;40050;47.324;18.792;2023-03-22T05:25:32;1003.71;;;8.16;66.16
54144;BME280;40050;47.324;18.792;2023-03-22T05:27:33;1003.80;;;8.21;66.41
54144;BME280;40050;47.324;18.792;2023-03-22T05:29:34;1003.81;;;8.25;66.77
54144;BME280;40050;47.324;18.792;2023-03-22T05:31:34;1003.74;;;8.29;66.85
54144;BME280;40050;47.324;18.792;2023-03-22T05:33:35;1003.72;;;8.34;67.28
54144;BME280;40050;47.324;18.792;2023-03-22T05:35:38;1003.64;;;8.41;67.42
54144;BME280;40050;47.324;18.792;2023-03-22T05:37:39;1003.68;;;8.47;67.40
54144;BME280;40050;47.324;18.792;2023-03-22T05:39:40;1003.73;;;8.52;67.40
54144;BME280;40050;47.324;18.792;2023-03-22T05:41:41;1003.65;;;8.49;67.32
54144;BME280;40050;47.324;18.792;2023-03-22T05:43:42;1003.81;;;8.65;67.31
54144;BME280;40050;47.324;18.792;2023-03-22T05:45:43;1003.77;;;8.70;67.63
54144;BME280;40050;47.324;18.792;2023-03-22T05:47:44;1003.78;;;8.77;67.71
54144;BME280;40050;47.324;18.792;2023-03-22T05:49:45;1003.78;;;8.83;67.73
54144;BME280;40050;47.324;18.792;2023-03-22T05:51:45;1003.82;;;8.93;67.38
54144;BME280;40050;47.324;18.792;2023-03-22T05:53:46;1003.86;;;8.97;67.11
54144;BME280;40050;47.324;18.792;2023-03-22T05:55:48;1003.96;;;8.99;67.24
54144;BME280;40050;47.324;18.792;2023-03-22T05:57:49;1003.93;;;9.04;67.57
54144;BME280;40050;47.324;18.792;2023-03-22T05:59:50;1003.84;;;9.08;67.55
54144;BME280;40050;47.324;18.792;2023-03-22T06:01:51;1003.89;;;9.15;67.22
54144;BME280;40050;47.324;18.792;2023-03-22T06:03:52;1003.94;;;9.24;66.93
54144;BME280;40050;47.324;18.792;2023-03-22T06:05:52;1003.94;;;9.27;67.06
54144;BME280;40050;47.324;18.792;2023-03-22T06:07:53;1004.00;;;9.32;67.08
54144;BME280;40050;47.324;18.792;2023-03-22T06:09:54;1004.05;;;9.39;67.07
54144;BME280;40050;47.324;18.792;2023-03-22T06:11:56;1004.07;;;9.49;66.65
54144;BME280;40050;47.324;18.792;2023-03-22T06:13:57;1003.76;;;9.32;66.81
54144;BME280;40050;47.324;18.792;2023-03-22T06:15:59;1004.07;;;9.58;67.02
54144;BME280;40050;47.324;18.792;2023-03-22T06:18:00;1004.04;;;9.62;66.82
54144;BME280;40050;47.324;18.792;2023-03-22T06:20:02;1004.10;;;9.70;66.64
54144;BME280;40050;47.324;18.792;2023-03-22T06:22:03;1004.04;;;9.73;66.60
54144;BME280;40050;47.324;18.792;2023-03-22T06:24:04;1004.02;;;9.83;66.51
54144;BME280;40050;47.324;18.792;2023-03-22T06:26:05;1004.01;;;9.86;66.63
54144;BME280;40050;47.324;18.792;2023-03-22T06:28:06;1003.99;;;9.86;66.60
54144;BME280;40050;47.324;18.792;2023-03-22T06:30:07;1003.99;;;9.91;66.54
54144;BME280;40050;47.324;18.792;2023-03-22T06:32:08;1004.01;;;9.98;66.57
54144;BME280;40050;47.324;18.792;2023-03-22T06:34:12;1004.05;;;10.05;66.41
54144;BME280;40050;47.324;18.792;2023-03-22T06:36:13;1004.03;;;10.10;66.24
54144;BME280;40050;47.324;18.792;2023-03-22T06:38:14;1004.06;;;10.21;65.90
54144;BME280;40050;47.324;18.792;2023-03-22T06:40:15;1004.06;;;10.25;65.90
54144;BME280;40050;47.324;18.792;2023-03-22T06:42:16;1004.11;;;10.33;65.94
54144;BME280;40050;47.324;18.792;2023-03-22T06:44:16;1004.10;;;10.41;65.97
54144;BME280;40050;47.324;18.792;2023-03-22T06:46:17;1004.11;;;10.48;65.91
54144;BME280;40050;47.324;18.792;2023-03-22T06:48:18;1004.05;;;10.54;65.83
54144;BME280;40050;47.324;18.792;2023-03-22T06:50:19;1004.08;;;10.59;65.75
54144;BME280;40050;47.324;18.792;2023-03-22T06:52:20;1004.07;;;10.65;65.88
54144;BME280;40050;47.324;18.792;2023-03-22T06:54:21;1004.07;;;10.68;65.73
54144;BME280;40050;47.324;18.792;2023-03-22T06:56:25;1004.20;;;10.81;65.38
54144;BME280;40050;47.324;18.792;2023-03-22T06:58:26;1004.19;;;10.87;65.30
54144;BME280;40050;47.324;18.792;2023-03-22T07:00:27;1004.18;;;10.92;65.00
54144;BME280;40050;47.324;18.792;2023-03-22T07:02:28;1004.18;;;10.96;64.89
54144;BME280;40050;47.324;18.792;2023-03-22T07:04:29;1004.29;;;11.03;64.78
54144;BME280;40050;47.324;18.792;2023-03-22T07:06:30;1004.31;;;11.08;64.93
54144;BME280;40050;47.324;18.792;2023-03-22T07:08:31;1004.27;;;11.11;65.04
54144;BME280;40050;47.324;18.792;2023-03-22T07:10:32;1004.27;;;11.17;65.08
54144;BME280;40050;47.324;18.792;2023-03-22T07:12:33;1004.30;;;11.24;65.15
54144;BME280;40050;47.324;18.792;2023-03-22T07:14:34;1004.35;;;11.31;65.04
54144;BME280;40050;47.324;18.792;2023-03-22T07:16:35;1004.34;;;11.37;65.02
54144;BME280;40050;47.324;18.792;2023-03-22T07:18:36;1004.47;;;11.45;65.03
54144;BME280;40050;47.324;18.792;2023-03-22T07:20:37;1004.51;;;11.51;65.21
54144;BME280;40050;47.324;18.792;2023-03-22T07:22:38;1004.49;;;11.58;65.56
54144;BME280;40050;47.324;18.792;2023-03-22T07:24:38;1004.47;;;11.64;65.76
54144;BME280;40050;47.324;18.792;2023-03-22T07:26:39;1004.42;;;11.71;65.57
54144;BME280;40050;47.324;18.792;2023-03-22T07:28:40;1004.41;;;11.77;65.09
54144;BME280;40050;47.324;18.792;2023-03-22T07:30:41;1004.36;;;11.80;65.05
54144;BME280;40050;47.324;18.792;2023-03-22T07:32:42;1004.30;;;11.90;64.33
54144;BME280;40050;47.324;18.792;2023-03-22T07:34:43;1004.28;;;11.92;64.26
54144;BME280;40050;47.324;18.792;2023-03-22T07:36:44;1004.30;;;11.96;64.10
54144;BME280;40050;47.324;18.792;2023-03-22T07:38:45;1004.13;;;11.96;63.72
54144;BME280;40050;47.324;18.792;2023-03-22T07:40:46;1004.18;;;12.05;63.84
54144;BME280;40050;47.324;18.792;2023-03-22T07:42:47;1004.26;;;12.20;64.04
54144;BME280;40050;47.324;18.792;2023-03-22T07:44:49;1004.23;;;12.28;62.95
54144;BME280;40050;47.324;18.792;2023-03-22T07:46:50;1004.18;;;12.33;62.83
54144;BME280;40050;47.324;18.792;2023-03-22T07:48:51;1004.22;;;12.36;62.76
54144;BME280;40050;47.324;18.792;2023-03-22T07:50:54;1004.29;;;12.39;62.92
54144;BME280;40050;47.324;18.792;2023-03-22T07:52:55;1004.31;;;12.44;62.97
54144;BME280;40050;47.324;18.792;2023-03-22T07:54:56;1004.25;;;12.50;62.69
54144;BME280;40050;47.324;18.792;2023-03-22T07:56:57;1004.28;;;12.61;62.67
54144;BME280;40050;47.324;18.792;2023-03-22T07:58:58;1004.29;;;12.79;61.79
54144;BME280;40050;47.324;18.792;2023-03-22T08:01:02;1004.26;;;12.84;61.75
54144;BME280;40050;47.324;18.792;2023-03-22T08:03:03;1004.24;;;12.91;61.49
54144;BME280;40050;47.324;18.792;2023-03-22T08:05:05;1004.17;;;12.96;61.07
54144;BME280;40050;47.324;18.792;2023-03-22T08:07:06;1004.04;;;12.86;60.25
54144;BME280;40050;47.324;18.792;2023-03-22T08:09:07;1004.25;;;12.97;59.64
54144;BME280;40050;47.324;18.792;2023-03-22T08:11:08;1004.28;;;13.01;59.54
54144;BME280;40050;47.324;18.792;2023-03-22T08:13:09;1004.31;;;13.07;59.91
54144;BME280;40050;47.324;18.792;2023-03-22T08:15:10;1004.31;;;13.18;59.97
54144;BME280;40050;47.324;18.792;2023-03-22T08:17:11;1004.25;;;13.26;59.33
54144;BME280;40050;47.324;18.792;2023-03-22T08:19:12;1004.28;;;13.33;58.74
54144;BME280;40050;47.324;18.792;2023-03-22T08:21:13;1004.23;;;13.41;58.67
54144;BME280;40050;47.324;18.792;2023-03-22T08:23:14;1004.27;;;13.48;58.83
54144;BME280;40050;47.324;18.792;2023-03-22T08:25:15;1004.31;;;13.55;58.66
54144;BME280;40050;47.324;18.792;2023-03-22T08:27:16;1004.27;;;13.61;58.49
54144;BME280;40050;47.324;18.792;2023-03-22T08:29:17;1004.31;;;13.70;58.12
54144;BME280;40050;47.324;18.792;2023-03-22T08:31:19;1004.35;;;13.82;57.60
54144;BME280;40050;47.324;18.792;2023-03-22T08:33:20;1004.27;;;13.83;57.68
54144;BME280;40050;47.324;18.792;2023-03-22T08:35:20;1004.31;;;13.86;56.87
54144;BME280;40050;47.324;18.792;2023-03-22T08:37:21;1004.43;;;13.85;56.97
54144;BME280;40050;47.324;18.792;2023-03-22T08:39:22;1004.40;;;13.91;57.00
54144;BME280;40050;47.324;18.792;2023-03-22T08:41:23;1004.38;;;13.95;57.01
54144;BME280;40050;47.324;18.792;2023-03-22T08:43:24;1004.42;;;14.01;57.03
54144;BME280;40050;47.324;18.792;2023-03-22T08:45:25;1004.46;;;14.07;56.61
54144;BME280;40050;47.324;18.792;2023-03-22T08:47:26;1004.49;;;14.16;56.29
54144;BME280;40050;47.324;18.792;2023-03-22T08:49:27;1004.45;;;14.19;55.85
54144;BME280;40050;47.324;18.792;2023-03-22T08:51:28;1004.46;;;14.23;55.93
54144;BME280;40050;47.324;18.792;2023-03-22T08:53:29;1004.53;;;14.31;55.80
54144;BME280;40050;47.324;18.792;2023-03-22T08:55:30;1004.54;;;14.37;55.38
54144;BME280;40050;47.324;18.792;2023-03-22T08:57:31;1004.47;;;14.43;54.59
54144;BME280;40050;47.324;18.792;2023-03-22T08:59:32;1004.47;;;14.46;55.05
54144;BME280;40050;47.324;18.792;2023-03-22T09:01:33;1004.47;;;14.52;54.63
54144;BME280;40050;47.324;18.792;2023-03-22T09:03:34;1004.33;;;14.49;54.43
54144;BME280;40050;47.324;18.792;2023-03-22T09:05:35;1004.46;;;14.63;54.73
54144;BME280;40050;47.324;18.792;2023-03-22T09:07:36;1004.52;;;14.71;54.11
54144;BME280;40050;47.324;18.792;2023-03-22T09:09:37;1004.48;;;14.68;53.96
54144;BME280;40050;47.324;18.792;2023-03-22T09:11:38;1004.47;;;14.75;53.65
54144;BME280;40050;47.324;18.792;2023-03-22T09:13:39;1004.45;;;14.75;53.78
54144;BME280;40050;47.324;18.792;2023-03-22T09:15:40;1004.43;;;14.76;53.94
54144;BME280;40050;47.324;18.792;2023-03-22T09:17:40;1004.42;;;14.79;53.83
54144;BME280;40050;47.324;18.792;2023-03-22T09:19:41;1004.43;;;14.89;53.40
54144;BME280;40050;47.324;18.792;2023-03-22T09:21:42;1004.40;;;14.89;53.81
54144;BME280;40050;47.324;18.792;2023-03-22T09:23:43;1004.39;;;14.92;53.99
54144;BME280;40050;47.324;18.792;2023-03-22T09:25:44;1004.41;;;14.99;53.34
54144;BME280;40050;47.324;18.792;2023-03-22T09:27:46;1004.40;;;15.02;53.35
54144;BME280;40050;47.324;18.792;2023-03-22T09:29:47;1004.37;;;15.06;53.35
54144;BME280;40050;47.324;18.792;2023-03-22T09:31:48;1004.36;;;15.09;52.85
54144;BME280;40050;47.324;18.792;2023-03-22T09:33:48;1004.33;;;15.18;52.56
54144;BME280;40050;47.324;18.792;2023-03-22T09:35:49;1004.30;;;15.17;52.46
54144;BME280;40050;47.324;18.792;2023-03-22T09:37:51;1004.30;;;15.18;52.45
54144;BME280;40050;47.324;18.792;2023-03-22T09:39:52;1004.24;;;15.19;52.12
54144;BME280;40050;47.324;18.792;2023-03-22T09:41:55;1004.23;;;15.13;52.34
54144;BME280;40050;47.324;18.792;2023-03-22T09:43:57;1004.27;;;15.12;52.44
54144;BME280;40050;47.324;18.792;2023-03-22T09:46:00;1004.26;;;15.12;52.53
54144;BME280;40050;47.324;18.792;2023-03-22T09:48:03;1004.26;;;15.13;52.65
54144;BME280;40050;47.324;18.792;2023-03-22T09:50:18;1004.22;;;15.13;52.66
54144;BME280;40050;47.324;18.792;2023-03-22T09:52:18;1004.26;;;14.99;52.97
54144;BME280;40050;47.324;18.792;2023-03-22T09:54:32;1004.27;;;15.01;53.04
54144;BME280;40050;47.324;18.792;2023-03-22T09:56:32;1004.28;;;15.06;53.22
54144;BME280;40050;47.324;18.792;2023-03-22T10:00:59;1004.27;;;15.02;53.58
54144;BME280;40050;47.324;18.792;2023-03-22T10:03:15;1004.27;;;15.05;53.97
54144;BME280;40050;47.324;18.792;2023-03-22T10:07:51;1004.25;;;15.13;53.65
54144;BME280;40050;47.324;18.792;2023-03-22T10:10:07;1004.22;;;15.16;53.62
54144;BME280;40050;47.324;18.792;2023-03-22T10:12:20;1004.20;;;15.19;53.41
54144;BME280;40050;47.324;18.792;2023-03-22T10:16:34;1004.23;;;15.19;53.70
54144;BME280;40050;47.324;18.792;2023-03-22T10:18:37;1004.20;;;15.27;53.59
54144;BME280;40050;47.324;18.792;2023-03-22T10:23:00;1004.23;;;15.23;53.82
54144;BME280;40050;47.324;18.792;2023-03-22T10:25:04;1004.19;;;15.24;53.79
54144;BME280;40050;47.324;18.792;2023-03-22T10:27:16;1004.13;;;15.27;53.55
54144;BME280;40050;47.324;18.792;2023-03-22T10:29:28;1004.18;;;15.34;53.49
54144;BME280;40050;47.324;18.792;2023-03-22T10:31:32;1004.16;;;15.36;53.82
54144;BME280;40050;47.324;18.792;2023-03-22T10:33:38;1004.19;;;15.37;53.80
54144;BME280;40050;47.324;18.792;2023-03-22T10:35:39;1004.15;;;15.40;54.01
54144;BME280;40050;47.324;18.792;2023-03-22T10:37:42;1004.15;;;15.49;53.80
54144;BME280;40050;47.324;18.792;2023-03-22T10:39:44;1004.17;;;15.53;53.44
54144;BME280;40050;47.324;18.792;2023-03-22T10:41:46;1004.14;;;15.55;53.41
54144;BME280;40050;47.324;18.792;2023-03-22T10:43:47;1004.19;;;15.59;53.53
54144;BME280;40050;47.324;18.792;2023-03-22T10:45:53;1004.16;;;15.61;53.83
54144;BME280;40050;47.324;18.792;2023-03-22T10:47:57;1004.16;;;15.59;54.12
54144;BME280;40050;47.324;18.792;2023-03-22T10:49:59;1004.13;;;15.64;53.47
54144;BME280;40050;47.324;18.792;2023-03-22T10:54:27;1004.08;;;15.63;53.46
54144;BME280;40050;47.324;18.792;2023-03-22T10:56:28;1004.12;;;15.69;53.34
54144;BME280;40050;47.324;18.792;2023-03-22T10:58:30;1004.06;;;15.72;53.10
54144;BME280;40050;47.324;18.792;2023-03-22T11:00:31;1004.11;;;15.79;53.13
54144;BME280;40050;47.324;18.792;2023-03-22T11:02:32;1003.97;;;15.81;53.09
54144;BME280;40050;47.324;18.792;2023-03-22T11:04:33;1003.98;;;15.87;53.02
54144;BME280;40050;47.324;18.792;2023-03-22T11:06:38;1004.00;;;15.88;53.03
54144;BME280;40050;47.324;18.792;2023-03-22T11:08:49;1003.93;;;15.84;53.09
54144;BME280;40050;47.324;18.792;2023-03-22T11:10:50;1003.79;;;15.72;53.28
54144;BME280;40050;47.324;18.792;2023-03-22T11:12:56;1003.86;;;15.85;53.24
54144;BME280;40050;47.324;18.792;2023-03-22T11:15:18;1003.85;;;15.86;52.98
54144;BME280;40050;47.324;18.792;2023-03-22T11:17:21;1003.82;;;15.83;53.23
54144;BME280;40050;47.324;18.792;2023-03-22T11:19:33;1003.78;;;15.77;53.10
54144;BME280;40050;47.324;18.792;2023-03-22T11:21:34;1003.72;;;15.64;53.66
54144;BME280;40050;47.324;18.792;2023-03-22T11:23:36;1003.60;;;15.71;53.76
54144;BME280;40050;47.324;18.792;2023-03-22T11:25:42;1003.62;;;15.79;53.81
54144;BME280;40050;47.324;18.792;2023-03-22T11:27:55;1003.65;;;15.81;53.74
54144;BME280;40050;47.324;18.792;2023-03-22T11:30:19;1003.61;;;15.87;53.83
54144;BME280;40050;47.324;18.792;2023-03-22T11:32:43;1003.55;;;15.85;53.82
54144;BME280;40050;47.324;18.792;2023-03-22T11:34:29;1003.51;;;15.85;54.38